AEZ2114 LICB-LIRF
Flight info
| Callsign | AEZ2114 |
|---|---|
| Flight time | 1h 2m |
| Altitude | 34000 |
| Route | OBAXU N982 LIBRO DCT BEROL DCT ENSOT DCT PNZ M726 LAT |
| Aircraft | B738/M-SDE2E3FGHIRWXY/LB1 |
Departure
| Time | 2026-04-16 12:54 |
|---|---|
| Airport | Comiso Airport (LICB) |
Arrival
| Time | 2026-04-16 13:57 |
|---|---|
| Airport | Rome–Fiumicino Leonardo da Vinci International Airport (LIRF) |
| Time | Latitude | Longitude | Altitude | Speed | Heading |
|---|---|---|---|---|---|
| 2026-04-16 12:25 | 36.99809 | 14.60794 | 718 ft | 0 kts | 352° |
| 2026-04-16 12:50 | 36.99812 | 14.60798 | 719 ft | 1 kts | 40° |
| 2026-04-16 12:50 | 36.99811 | 14.60804 | 719 ft | 1 kts | 95° |
| 2026-04-16 12:50 | 36.99805 | 14.60819 | 720 ft | 4 kts | 118° |
| 2026-04-16 12:50 | 36.99764 | 14.60827 | 718 ft | 10 kts | 204° |
| 2026-04-16 12:51 | 36.99675 | 14.60764 | 716 ft | 19 kts | 202° |
| 2026-04-16 12:51 | 36.99530 | 14.60696 | 711 ft | 24 kts | 200° |
| 2026-04-16 12:51 | 36.99392 | 14.60587 | 694 ft | 23 kts | 220° |
| 2026-04-16 12:51 | 36.99280 | 14.60431 | 692 ft | 24 kts | 230° |
| 2026-04-16 12:52 | 36.99170 | 14.60272 | 682 ft | 25 kts | 229° |
| 2026-04-16 12:52 | 36.99057 | 14.60102 | 679 ft | 25 kts | 230° |
| 2026-04-16 12:52 | 36.98949 | 14.59938 | 672 ft | 24 kts | 230° |
| 2026-04-16 12:52 | 36.98864 | 14.59811 | 668 ft | 11 kts | 229° |
| 2026-04-16 12:53 | 36.98844 | 14.59719 | 665 ft | 8 kts | 272° |
| 2026-04-16 12:53 | 36.98822 | 14.59682 | 662 ft | 6 kts | 184° |
| 2026-04-16 12:53 | 36.98810 | 14.59722 | 664 ft | 5 kts | 77° |
| 2026-04-16 12:53 | 36.98834 | 14.59768 | 664 ft | 10 kts | 50° |
| 2026-04-16 12:54 | 36.98985 | 14.59990 | 674 ft | 72 kts | 49° |
| 2026-04-16 12:54 | 36.99470 | 14.60714 | 711 ft | 143 kts | 51° |
| 2026-04-16 12:54 | 37.00187 | 14.61757 | 1246 ft | 164 kts | 48° |
| 2026-04-16 12:54 | 37.00996 | 14.62736 | 2345 ft | 167 kts | 35° |
| 2026-04-16 12:55 | 37.02014 | 14.63028 | 3038 ft | 180 kts | 358° |
| 2026-04-16 12:55 | 37.03201 | 14.62386 | 3712 ft | 194 kts | 322° |
| 2026-04-16 12:55 | 37.04018 | 14.61014 | 4009 ft | 201 kts | 303° |
| 2026-04-16 12:55 | 37.04763 | 14.59470 | 3997 ft | 210 kts | 303° |
| 2026-04-16 12:56 | 37.05595 | 14.57912 | 4252 ft | 224 kts | 318° |
| 2026-04-16 12:56 | 37.06887 | 14.56658 | 4492 ft | 247 kts | 328° |
| 2026-04-16 12:56 | 37.08286 | 14.55346 | 5119 ft | 254 kts | 326° |
| 2026-04-16 12:56 | 37.09734 | 14.53946 | 5569 ft | 275 kts | 325° |
| 2026-04-16 12:57 | 37.11268 | 14.52440 | 6313 ft | 283 kts | 324° |
| 2026-04-16 12:57 | 37.12831 | 14.50888 | 7096 ft | 290 kts | 324° |
| 2026-04-16 12:57 | 37.14414 | 14.49308 | 7988 ft | 291 kts | 324° |
| 2026-04-16 12:57 | 37.15997 | 14.47721 | 8887 ft | 293 kts | 323° |
| 2026-04-16 12:58 | 37.17606 | 14.46108 | 9677 ft | 299 kts | 324° |
| 2026-04-16 12:58 | 37.19248 | 14.44461 | 10395 ft | 307 kts | 324° |
| 2026-04-16 12:58 | 37.21128 | 14.43041 | 10607 ft | 326 kts | 343° |
| 2026-04-16 12:58 | 37.23383 | 14.42618 | 10822 ft | 342 kts | 4° |
| 2026-04-16 12:59 | 37.25807 | 14.42817 | 11232 ft | 355 kts | 8° |
| 2026-04-16 12:59 | 37.28283 | 14.43110 | 11950 ft | 358 kts | 8° |
| 2026-04-16 12:59 | 37.30770 | 14.43410 | 12766 ft | 360 kts | 7° |
| 2026-04-16 13:00 | 37.35822 | 14.43964 | 14217 ft | 366 kts | 7° |
| 2026-04-16 13:00 | 37.38369 | 14.44221 | 14866 ft | 371 kts | 6° |
| 2026-04-16 13:00 | 37.40967 | 14.44474 | 15412 ft | 378 kts | 6° |
| 2026-04-16 13:00 | 37.43597 | 14.44726 | 16076 ft | 380 kts | 7° |
| 2026-04-16 13:01 | 37.46241 | 14.44979 | 16721 ft | 383 kts | 7° |
| 2026-04-16 13:01 | 37.48923 | 14.45236 | 17259 ft | 389 kts | 6° |
| 2026-04-16 13:01 | 37.51637 | 14.45496 | 17854 ft | 394 kts | 7° |
| 2026-04-16 13:01 | 37.54376 | 14.45757 | 18471 ft | 397 kts | 6° |
| 2026-04-16 13:02 | 37.57145 | 14.46022 | 18992 ft | 401 kts | 6° |
| 2026-04-16 13:02 | 37.59943 | 14.46197 | 19582 ft | 404 kts | 0° |
| 2026-04-16 13:02 | 37.62747 | 14.45793 | 20169 ft | 408 kts | 351° |
| 2026-04-16 13:02 | 37.65492 | 14.44799 | 20714 ft | 413 kts | 340° |
| 2026-04-16 13:03 | 37.68123 | 14.43410 | 21239 ft | 416 kts | 339° |
| 2026-04-16 13:03 | 37.70778 | 14.41942 | 21754 ft | 418 kts | 339° |
| 2026-04-16 13:03 | 37.73445 | 14.40451 | 22288 ft | 420 kts | 338° |
| 2026-04-16 13:03 | 37.76126 | 14.38957 | 22792 ft | 423 kts | 339° |
| 2026-04-16 13:04 | 37.78826 | 14.37462 | 23279 ft | 425 kts | 338° |
| 2026-04-16 13:04 | 37.81547 | 14.35967 | 23736 ft | 428 kts | 338° |
| 2026-04-16 13:04 | 37.84284 | 14.34470 | 24160 ft | 429 kts | 338° |
| 2026-04-16 13:04 | 37.87035 | 14.32969 | 24566 ft | 432 kts | 338° |
| 2026-04-16 13:05 | 37.89804 | 14.31461 | 24935 ft | 434 kts | 338° |
| 2026-04-16 13:05 | 37.92595 | 14.29940 | 25314 ft | 437 kts | 338° |
| 2026-04-16 13:05 | 37.95400 | 14.28412 | 25684 ft | 439 kts | 338° |
| 2026-04-16 13:05 | 37.98214 | 14.26877 | 26054 ft | 441 kts | 338° |
| 2026-04-16 13:06 | 38.01046 | 14.25330 | 26414 ft | 444 kts | 338° |
| 2026-04-16 13:06 | 38.03889 | 14.23776 | 26735 ft | 446 kts | 338° |
| 2026-04-16 13:06 | 38.06755 | 14.22209 | 27056 ft | 449 kts | 338° |
| 2026-04-16 13:06 | 38.09628 | 14.20635 | 27361 ft | 452 kts | 338° |
| 2026-04-16 13:07 | 38.12492 | 14.19066 | 27578 ft | 456 kts | 338° |
| 2026-04-16 13:07 | 38.15448 | 14.17445 | 27891 ft | 458 kts | 338° |
| 2026-04-16 13:07 | 38.18340 | 14.15857 | 28224 ft | 459 kts | 338° |
| 2026-04-16 13:07 | 38.21279 | 14.14242 | 28543 ft | 461 kts | 338° |
| 2026-04-16 13:08 | 38.24230 | 14.12619 | 28848 ft | 463 kts | 338° |
| 2026-04-16 13:08 | 38.27182 | 14.10993 | 29249 ft | 462 kts | 338° |
| 2026-04-16 13:08 | 38.30131 | 14.09368 | 29679 ft | 461 kts | 338° |
| 2026-04-16 13:08 | 38.33075 | 14.07744 | 30080 ft | 460 kts | 338° |
| 2026-04-16 13:09 | 38.35062 | 14.06648 | 30314 ft | 460 kts | 338° |
| 2026-04-16 13:09 | 38.38000 | 14.05025 | 30651 ft | 459 kts | 338° |
| 2026-04-16 13:09 | 38.40890 | 14.03428 | 30972 ft | 459 kts | 338° |
| 2026-04-16 13:09 | 38.43823 | 14.01805 | 31291 ft | 459 kts | 338° |
| 2026-04-16 13:10 | 38.46747 | 14.00187 | 31613 ft | 458 kts | 338° |
| 2026-04-16 13:10 | 38.49671 | 13.98566 | 31947 ft | 457 kts | 338° |
| 2026-04-16 13:10 | 38.52593 | 13.96945 | 32251 ft | 457 kts | 338° |
| 2026-04-16 13:10 | 38.55515 | 13.95323 | 32512 ft | 458 kts | 338° |
| 2026-04-16 13:11 | 38.58440 | 13.93698 | 32812 ft | 458 kts | 338° |
| 2026-04-16 13:11 | 38.61353 | 13.92078 | 33161 ft | 456 kts | 337° |
| 2026-04-16 13:11 | 38.64265 | 13.90457 | 33500 ft | 455 kts | 337° |
| 2026-04-16 13:11 | 38.67170 | 13.88838 | 33793 ft | 455 kts | 337° |
| 2026-04-16 13:12 | 38.70078 | 13.87217 | 34046 ft | 456 kts | 337° |
| 2026-04-16 13:12 | 38.75936 | 13.83946 | 34050 ft | 459 kts | 337° |
| 2026-04-16 13:13 | 38.81724 | 13.80708 | 34031 ft | 452 kts | 337° |
| 2026-04-16 13:13 | 38.87514 | 13.77463 | 34060 ft | 451 kts | 337° |
| 2026-04-16 13:14 | 38.93260 | 13.74237 | 34059 ft | 451 kts | 337° |
| 2026-04-16 13:14 | 38.98982 | 13.71020 | 34056 ft | 452 kts | 337° |
| 2026-04-16 13:15 | 39.04740 | 13.67776 | 34056 ft | 452 kts | 338° |
| 2026-04-16 13:15 | 39.10500 | 13.64524 | 34055 ft | 452 kts | 337° |
| 2026-04-16 13:16 | 39.16263 | 13.61266 | 34059 ft | 453 kts | 337° |
| 2026-04-16 13:16 | 39.22032 | 13.57998 | 34061 ft | 453 kts | 337° |
| 2026-04-16 13:17 | 39.27796 | 13.54727 | 34059 ft | 452 kts | 338° |
| 2026-04-16 13:17 | 39.33563 | 13.51448 | 34059 ft | 452 kts | 338° |
| 2026-04-16 13:18 | 39.39319 | 13.48170 | 34058 ft | 451 kts | 338° |
| 2026-04-16 13:18 | 39.45014 | 13.44920 | 34059 ft | 450 kts | 338° |
| 2026-04-16 13:19 | 39.50769 | 13.41631 | 34057 ft | 448 kts | 338° |
| 2026-04-16 13:19 | 39.56435 | 13.38386 | 34061 ft | 447 kts | 338° |
| 2026-04-16 13:20 | 39.62120 | 13.35126 | 34062 ft | 446 kts | 338° |
| 2026-04-16 13:20 | 39.67790 | 13.31867 | 34065 ft | 445 kts | 338° |
| 2026-04-16 13:21 | 39.73452 | 13.28608 | 34056 ft | 445 kts | 338° |
| 2026-04-16 13:21 | 39.79106 | 13.25347 | 34067 ft | 445 kts | 338° |
| 2026-04-16 13:22 | 39.84762 | 13.22080 | 34068 ft | 445 kts | 338° |
| 2026-04-16 13:22 | 39.90434 | 13.18797 | 34071 ft | 446 kts | 338° |
| 2026-04-16 13:23 | 39.96107 | 13.15508 | 34073 ft | 447 kts | 338° |
| 2026-04-16 13:23 | 40.01756 | 13.12226 | 34069 ft | 447 kts | 338° |
| 2026-04-16 13:24 | 40.07439 | 13.08919 | 34070 ft | 447 kts | 338° |
| 2026-04-16 13:24 | 40.13116 | 13.05612 | 34072 ft | 446 kts | 338° |
| 2026-04-16 13:25 | 40.18793 | 13.02372 | 34062 ft | 444 kts | 343° |
| 2026-04-16 13:25 | 40.24779 | 13.00826 | 34078 ft | 436 kts | 359° |
| 2026-04-16 13:26 | 40.30835 | 13.00441 | 34076 ft | 436 kts | 359° |
| 2026-04-16 13:26 | 40.36887 | 13.00039 | 34075 ft | 435 kts | 359° |
| 2026-04-16 13:27 | 40.42929 | 12.99589 | 34069 ft | 434 kts | 358° |
| 2026-04-16 13:27 | 40.48959 | 12.99128 | 34076 ft | 434 kts | 358° |
| 2026-04-16 13:28 | 40.54987 | 12.98664 | 34077 ft | 433 kts | 358° |
| 2026-04-16 13:28 | 40.60932 | 12.98175 | 34055 ft | 415 kts | 358° |
| 2026-04-16 13:28 | 40.63757 | 12.97939 | 34057 ft | 400 kts | 358° |
| 2026-04-16 13:29 | 40.66458 | 12.97715 | 33925 ft | 390 kts | 358° |
| 2026-04-16 13:29 | 40.69195 | 12.97492 | 32888 ft | 401 kts | 358° |
| 2026-04-16 13:29 | 40.72041 | 12.97264 | 31544 ft | 419 kts | 358° |
| 2026-04-16 13:29 | 40.75016 | 12.97025 | 30245 ft | 437 kts | 358° |
| 2026-04-16 13:30 | 40.78094 | 12.96774 | 29148 ft | 445 kts | 358° |
| 2026-04-16 13:30 | 40.81169 | 12.96520 | 28575 ft | 440 kts | 358° |
| 2026-04-16 13:30 | 40.84209 | 12.96269 | 27973 ft | 436 kts | 358° |
| 2026-04-16 13:30 | 40.87221 | 12.96021 | 27419 ft | 431 kts | 358° |
| 2026-04-16 13:31 | 40.90200 | 12.95830 | 26895 ft | 426 kts | 2° |
| 2026-04-16 13:31 | 40.93131 | 12.96146 | 26277 ft | 422 kts | 12° |
| 2026-04-16 13:31 | 40.95991 | 12.96978 | 25743 ft | 418 kts | 14° |
| 2026-04-16 13:31 | 40.98804 | 12.97857 | 25214 ft | 414 kts | 14° |
| 2026-04-16 13:32 | 41.01596 | 12.98731 | 24706 ft | 410 kts | 14° |
| 2026-04-16 13:32 | 41.04366 | 12.99586 | 24201 ft | 407 kts | 14° |
| 2026-04-16 13:32 | 41.07116 | 13.00424 | 23710 ft | 403 kts | 14° |
| 2026-04-16 13:32 | 41.09844 | 13.01246 | 23135 ft | 400 kts | 14° |
| 2026-04-16 13:33 | 41.12549 | 13.02057 | 22599 ft | 396 kts | 14° |
| 2026-04-16 13:33 | 41.15191 | 13.02849 | 22109 ft | 392 kts | 14° |
| 2026-04-16 13:33 | 41.17836 | 13.03642 | 21620 ft | 388 kts | 14° |
| 2026-04-16 13:33 | 41.20451 | 13.04427 | 21142 ft | 384 kts | 14° |
| 2026-04-16 13:34 | 41.23042 | 13.05207 | 20665 ft | 380 kts | 14° |
| 2026-04-16 13:34 | 41.25613 | 13.05980 | 20188 ft | 377 kts | 14° |
| 2026-04-16 13:34 | 41.28159 | 13.06745 | 19721 ft | 374 kts | 14° |
| 2026-04-16 13:34 | 41.30695 | 13.07457 | 19262 ft | 372 kts | 8° |
| 2026-04-16 13:35 | 41.33276 | 13.07398 | 18798 ft | 372 kts | 351° |
| 2026-04-16 13:35 | 41.35753 | 13.06423 | 18338 ft | 373 kts | 337° |
| 2026-04-16 13:35 | 41.38016 | 13.04749 | 17832 ft | 372 kts | 330° |
| 2026-04-16 13:35 | 41.40215 | 13.02953 | 17334 ft | 370 kts | 330° |
| 2026-04-16 13:36 | 41.42397 | 13.01160 | 16872 ft | 367 kts | 330° |
| 2026-04-16 13:36 | 41.44541 | 12.99417 | 16731 ft | 355 kts | 330° |
| 2026-04-16 13:36 | 41.46627 | 12.97741 | 16559 ft | 345 kts | 331° |
| 2026-04-16 13:36 | 41.48621 | 12.96152 | 16419 ft | 335 kts | 331° |
| 2026-04-16 13:37 | 41.50627 | 12.94557 | 16280 ft | 325 kts | 331° |
| 2026-04-16 13:37 | 41.52545 | 12.93030 | 16146 ft | 316 kts | 331° |
| 2026-04-16 13:37 | 41.54393 | 12.91510 | 16007 ft | 309 kts | 326° |
| 2026-04-16 13:37 | 41.56037 | 12.89660 | 15838 ft | 309 kts | 319° |
| 2026-04-16 13:38 | 41.57602 | 12.87643 | 15667 ft | 316 kts | 317° |
| 2026-04-16 13:38 | 41.59296 | 12.85748 | 15481 ft | 320 kts | 328° |
| 2026-04-16 13:38 | 41.61163 | 12.84104 | 15290 ft | 322 kts | 329° |
| 2026-04-16 13:38 | 41.63033 | 12.82465 | 15066 ft | 321 kts | 329° |
| 2026-04-16 13:39 | 41.64898 | 12.80832 | 14869 ft | 319 kts | 329° |
| 2026-04-16 13:39 | 41.66722 | 12.79235 | 14693 ft | 316 kts | 329° |
| 2026-04-16 13:39 | 41.68548 | 12.77634 | 14560 ft | 312 kts | 329° |
| 2026-04-16 13:39 | 41.70355 | 12.76052 | 14310 ft | 311 kts | 328° |
| 2026-04-16 13:40 | 41.72166 | 12.74478 | 14125 ft | 310 kts | 328° |
| 2026-04-16 13:40 | 41.73970 | 12.72915 | 13943 ft | 308 kts | 329° |
| 2026-04-16 13:40 | 41.75769 | 12.71361 | 13757 ft | 307 kts | 329° |
| 2026-04-16 13:40 | 41.77567 | 12.69810 | 13578 ft | 309 kts | 329° |
| 2026-04-16 13:41 | 41.79380 | 12.68249 | 13425 ft | 311 kts | 329° |
| 2026-04-16 13:41 | 41.81198 | 12.66683 | 13289 ft | 310 kts | 329° |
| 2026-04-16 13:41 | 41.83003 | 12.65128 | 13064 ft | 307 kts | 329° |
| 2026-04-16 13:41 | 41.84801 | 12.63580 | 12705 ft | 306 kts | 329° |
| 2026-04-16 13:42 | 41.86590 | 12.62040 | 12343 ft | 306 kts | 329° |
| 2026-04-16 13:42 | 41.88380 | 12.60500 | 12014 ft | 305 kts | 329° |
| 2026-04-16 13:42 | 41.90160 | 12.58970 | 11702 ft | 303 kts | 329° |
| 2026-04-16 13:42 | 41.91928 | 12.57449 | 11383 ft | 302 kts | 329° |
| 2026-04-16 13:43 | 41.93693 | 12.55929 | 11068 ft | 301 kts | 329° |
| 2026-04-16 13:43 | 41.95449 | 12.54413 | 10749 ft | 299 kts | 329° |
| 2026-04-16 13:43 | 41.97200 | 12.52903 | 10448 ft | 298 kts | 329° |
| 2026-04-16 13:43 | 41.99001 | 12.51578 | 10120 ft | 295 kts | 343° |
| 2026-04-16 13:44 | 42.00980 | 12.50903 | 9838 ft | 292 kts | 349° |
| 2026-04-16 13:44 | 42.02952 | 12.50295 | 9511 ft | 290 kts | 349° |
| 2026-04-16 13:44 | 42.04894 | 12.49694 | 9181 ft | 289 kts | 349° |
| 2026-04-16 13:44 | 42.06877 | 12.49078 | 9078 ft | 290 kts | 348° |
| 2026-04-16 13:45 | 42.08823 | 12.48471 | 9049 ft | 290 kts | 348° |
| 2026-04-16 13:45 | 42.10778 | 12.47862 | 9045 ft | 288 kts | 348° |
| 2026-04-16 13:45 | 42.12729 | 12.47256 | 9048 ft | 288 kts | 349° |
| 2026-04-16 13:45 | 42.14685 | 12.46650 | 9056 ft | 289 kts | 349° |
| 2026-04-16 13:46 | 42.16648 | 12.46041 | 9053 ft | 289 kts | 349° |
| 2026-04-16 13:46 | 42.18611 | 12.45434 | 9078 ft | 290 kts | 349° |
| 2026-04-16 13:46 | 42.20590 | 12.44822 | 9084 ft | 293 kts | 349° |
| 2026-04-16 13:46 | 42.22586 | 12.44206 | 9085 ft | 295 kts | 349° |
| 2026-04-16 13:47 | 42.24578 | 12.43543 | 9029 ft | 293 kts | 342° |
| 2026-04-16 13:47 | 42.26301 | 12.42151 | 8980 ft | 290 kts | 316° |
| 2026-04-16 13:47 | 42.27412 | 12.39902 | 8658 ft | 291 kts | 290° |
| 2026-04-16 13:47 | 42.27682 | 12.37209 | 8285 ft | 293 kts | 263° |
| 2026-04-16 13:48 | 42.27282 | 12.34533 | 8014 ft | 290 kts | 255° |
| 2026-04-16 13:48 | 42.26768 | 12.31907 | 7728 ft | 289 kts | 254° |
| 2026-04-16 13:48 | 42.26239 | 12.29294 | 7463 ft | 288 kts | 254° |
| 2026-04-16 13:48 | 42.25704 | 12.26689 | 7197 ft | 287 kts | 254° |
| 2026-04-16 13:49 | 42.25169 | 12.24105 | 6907 ft | 285 kts | 254° |
| 2026-04-16 13:49 | 42.24633 | 12.21537 | 6622 ft | 284 kts | 253° |
| 2026-04-16 13:49 | 42.23877 | 12.19101 | 6306 ft | 282 kts | 233° |
| 2026-04-16 13:49 | 42.22454 | 12.17388 | 6046 ft | 278 kts | 206° |
| 2026-04-16 13:50 | 42.20619 | 12.16669 | 5791 ft | 274 kts | 187° |
| 2026-04-16 13:50 | 42.18722 | 12.16373 | 5594 ft | 275 kts | 184° |
| 2026-04-16 13:50 | 42.16823 | 12.16121 | 5404 ft | 274 kts | 184° |
| 2026-04-16 13:50 | 42.14929 | 12.15883 | 5193 ft | 272 kts | 184° |
| 2026-04-16 13:51 | 42.13046 | 12.15658 | 4900 ft | 271 kts | 184° |
| 2026-04-16 13:51 | 42.11173 | 12.15440 | 4696 ft | 264 kts | 183° |
| 2026-04-16 13:51 | 42.09409 | 12.15649 | 4575 ft | 248 kts | 159° |
| 2026-04-16 13:51 | 42.07845 | 12.16442 | 4496 ft | 234 kts | 159° |
| 2026-04-16 13:52 | 42.06329 | 12.17086 | 4421 ft | 223 kts | 161° |
| 2026-04-16 13:52 | 42.04889 | 12.17674 | 4307 ft | 213 kts | 161° |
| 2026-04-16 13:52 | 42.03488 | 12.18254 | 4040 ft | 209 kts | 161° |
| 2026-04-16 13:52 | 42.02110 | 12.18829 | 3559 ft | 206 kts | 161° |
| 2026-04-16 13:53 | 42.00747 | 12.19398 | 3302 ft | 203 kts | 161° |
| 2026-04-16 13:53 | 41.99402 | 12.19961 | 3027 ft | 201 kts | 161° |
| 2026-04-16 13:53 | 41.98094 | 12.20508 | 2769 ft | 198 kts | 161° |
| 2026-04-16 13:53 | 41.96784 | 12.21056 | 2515 ft | 195 kts | 161° |
| 2026-04-16 13:54 | 41.95481 | 12.21601 | 2252 ft | 190 kts | 163° |
| 2026-04-16 13:54 | 41.94266 | 12.22110 | 1996 ft | 181 kts | 163° |
| 2026-04-16 13:54 | 41.93096 | 12.22599 | 1762 ft | 171 kts | 163° |
| 2026-04-16 13:54 | 41.91985 | 12.23063 | 1559 ft | 163 kts | 164° |
| 2026-04-16 13:55 | 41.90906 | 12.23514 | 1362 ft | 164 kts | 166° |
| 2026-04-16 13:55 | 41.89822 | 12.23968 | 1131 ft | 161 kts | 165° |
| 2026-04-16 13:55 | 41.88773 | 12.24407 | 916 ft | 155 kts | 165° |
| 2026-04-16 13:55 | 41.87756 | 12.24831 | 730 ft | 152 kts | 166° |
| 2026-04-16 13:56 | 41.86753 | 12.25245 | 543 ft | 148 kts | 165° |
| 2026-04-16 13:56 | 41.85761 | 12.25679 | 318 ft | 152 kts | 167° |
| 2026-04-16 13:56 | 41.85087 | 12.25956 | 202 ft | 154 kts | 168° |
| 2026-04-16 13:56 | 41.84054 | 12.26384 | 28 ft | 155 kts | 166° |
| 2026-04-16 13:57 | 41.83119 | 12.26771 | 11 ft | 124 kts | 162° |
| 2026-04-16 13:57 | 41.82414 | 12.27064 | 9 ft | 88 kts | 162° |
| 2026-04-16 13:57 | 41.81951 | 12.27256 | 11 ft | 49 kts | 163° |
| 2026-04-16 13:58 | 41.81511 | 12.27424 | 13 ft | 26 kts | 185° |
| 2026-04-16 13:58 | 41.81381 | 12.27359 | 12 ft | 17 kts | 231° |
| 2026-04-16 13:58 | 41.81322 | 12.27243 | 11 ft | 14 kts | 207° |
| 2026-04-16 13:58 | 41.81227 | 12.27239 | 11 ft | 14 kts | 168° |
| 2026-04-16 13:59 | 41.81134 | 12.27277 | 11 ft | 15 kts | 164° |
| 2026-04-16 13:59 | 41.81041 | 12.27313 | 13 ft | 18 kts | 163° |
| 2026-04-16 14:00 | 41.80973 | 12.27343 | 11 ft | 19 kts | 162° |
| 2026-04-16 14:00 | 41.80831 | 12.27335 | 11 ft | 22 kts | 191° |
| 2026-04-16 14:01 | 41.80699 | 12.27291 | 13 ft | 16 kts | 213° |
| 2026-04-16 14:01 | 41.80637 | 12.27155 | 12 ft | 18 kts | 248° |
| 2026-04-16 14:01 | 41.80591 | 12.26988 | 12 ft | 20 kts | 249° |
| 2026-04-16 14:01 | 41.80541 | 12.26806 | 15 ft | 21 kts | 250° |
| 2026-04-16 14:02 | 41.80490 | 12.26623 | 14 ft | 21 kts | 249° |
| 2026-04-16 14:02 | 41.80439 | 12.26435 | 14 ft | 21 kts | 250° |
| 2026-04-16 14:02 | 41.80378 | 12.26365 | 14 ft | 13 kts | 178° |
| 2026-04-16 14:02 | 41.80298 | 12.26390 | 13 ft | 5 kts | 189° |
| 2026-04-16 14:03 | 41.80291 | 12.26342 | 13 ft | 7 kts | 282° |
| 2026-04-16 14:03 | 41.80294 | 12.26302 | 13 ft | 3 kts | 241° |
| 2026-04-16 14:03 | 41.80270 | 12.26282 | 13 ft | 2 kts | 204° |
| 2026-04-16 14:03 | 41.80258 | 12.26275 | 13 ft | 1 kts | 202° |
| 2026-04-16 14:04 | 41.80256 | 12.26274 | 13 ft | 0 kts | 205° |